createdAt,value
2017-05-18T00:00:43.066Z,1000.70
2017-05-18T00:01:43.686Z,1000.72
2017-05-18T00:02:44.335Z,1000.71
2017-05-18T00:03:44.932Z,1000.72
2017-05-18T00:04:45.541Z,1000.73
2017-05-18T00:05:46.148Z,1000.71
2017-05-18T00:06:46.756Z,1000.71
2017-05-18T00:07:47.366Z,1000.73
2017-05-18T00:08:47.974Z,1000.70
2017-05-18T00:09:48.591Z,1000.73
2017-05-18T00:10:49.192Z,1000.71
2017-05-18T00:11:49.802Z,1000.73
2017-05-18T00:12:50.402Z,1000.73
2017-05-18T00:13:51.004Z,1000.70
2017-05-18T00:14:51.615Z,1000.73
2017-05-18T00:15:52.227Z,1000.76
2017-05-18T00:16:52.842Z,1000.78
2017-05-18T00:17:53.463Z,1000.74
2017-05-18T00:18:54.102Z,1000.76
2017-05-18T00:19:54.717Z,1000.75
2017-05-18T00:20:55.332Z,1000.74
2017-05-18T00:21:55.949Z,1000.77
2017-05-18T00:22:56.552Z,1000.75
2017-05-18T00:23:57.169Z,1000.78
2017-05-18T00:24:57.777Z,1000.82
2017-05-18T00:25:58.392Z,1000.84
2017-05-18T00:26:59.006Z,1000.86
2017-05-18T00:27:59.632Z,1000.84
2017-05-18T00:29:00.216Z,1000.85
2017-05-18T00:30:00.826Z,1000.89
2017-05-18T00:31:01.439Z,1000.97
2017-05-18T00:32:02.065Z,1001.04
2017-05-18T00:33:02.674Z,1000.91
2017-05-18T00:34:03.279Z,1001.09
2017-05-18T00:35:03.898Z,1001.18
2017-05-18T00:36:04.503Z,1001.16
2017-05-18T00:37:05.120Z,1001.18
2017-05-18T00:38:05.714Z,1001.18
2017-05-18T00:39:06.319Z,1001.20
2017-05-18T00:40:06.921Z,1001.21
2017-05-18T00:41:07.537Z,1001.18
2017-05-18T00:42:08.145Z,1001.13
2017-05-18T00:43:08.759Z,1001.14
2017-05-18T00:44:09.361Z,1001.17
2017-05-18T00:45:09.975Z,1001.19
2017-05-18T00:46:10.587Z,1001.19
2017-05-18T00:47:11.196Z,1001.20
2017-05-18T00:48:11.796Z,1001.23
2017-05-18T00:49:12.400Z,1001.18
2017-05-18T00:50:13.012Z,1001.18
2017-05-18T00:51:13.658Z,1001.14
2017-05-18T00:52:14.223Z,1001.18
2017-05-18T00:53:14.828Z,1001.19
2017-05-18T00:54:15.445Z,1001.13
2017-05-18T00:55:16.066Z,1001.15
2017-05-18T00:56:16.681Z,1001.14
2017-05-18T00:57:17.294Z,1001.13
2017-05-18T00:58:17.909Z,1001.15
2017-05-18T00:59:18.520Z,1001.13
2017-05-18T01:00:19.121Z,1001.14
2017-05-18T01:01:19.736Z,1001.10
2017-05-18T01:02:20.352Z,1001.13
2017-05-18T01:03:20.972Z,1001.15
2017-05-18T01:04:21.580Z,1001.19
2017-05-18T01:05:22.198Z,1001.16
2017-05-18T01:06:22.803Z,1001.19
2017-05-18T01:08:38.891Z,1001.22
2017-05-18T01:09:39.506Z,1001.20
2017-05-18T01:10:40.107Z,1001.20
2017-05-18T01:11:40.721Z,1001.19
2017-05-18T01:12:41.337Z,1001.21
2017-05-18T01:13:41.999Z,1001.21
2017-05-18T01:14:42.602Z,1001.24
2017-05-18T01:15:43.218Z,1001.22
2017-05-18T01:16:43.816Z,1001.24
2017-05-18T01:17:44.418Z,1001.23
2017-05-18T01:18:45.029Z,1001.22
2017-05-18T01:19:45.650Z,1001.22
2017-05-18T01:20:46.264Z,1001.22
2017-05-18T01:21:46.877Z,1001.24
2017-05-18T01:22:47.489Z,1001.27
2017-05-18T01:23:48.091Z,1001.27
2017-05-18T01:24:48.699Z,1001.26
2017-05-18T01:25:49.302Z,1001.28
2017-05-18T01:26:49.907Z,1001.30
2017-05-18T01:27:50.526Z,1001.32
2017-05-18T01:28:51.128Z,1001.36
2017-05-18T01:29:51.740Z,1001.34
2017-05-18T01:30:52.344Z,1001.36
2017-05-18T01:31:52.946Z,1001.31
2017-05-18T01:32:53.563Z,1001.29
2017-05-18T01:33:54.174Z,1001.36
2017-05-18T01:34:54.787Z,1001.35
2017-05-18T01:35:55.389Z,1001.37
2017-05-18T01:36:56.004Z,1001.39
2017-05-18T01:37:56.617Z,1001.37
2017-05-18T01:38:57.287Z,1001.36
2017-05-18T01:39:57.887Z,1001.37
2017-05-18T01:40:58.500Z,1001.34
2017-05-18T01:41:59.117Z,1001.32
2017-05-18T01:42:59.733Z,1001.32
2017-05-18T01:44:00.350Z,1001.28
2017-05-18T01:45:00.968Z,1001.27
2017-05-18T01:46:01.585Z,1001.25
2017-05-18T01:47:02.196Z,1001.30
2017-05-18T01:48:02.809Z,1001.31
2017-05-18T01:49:03.415Z,1001.29
2017-05-18T01:50:04.025Z,1001.29
2017-05-18T01:51:04.643Z,1001.24
2017-05-18T01:52:05.229Z,1001.24
2017-05-18T01:53:05.845Z,1001.25
2017-05-18T01:54:06.464Z,1001.29
2017-05-18T01:55:07.080Z,1001.25
2017-05-18T01:56:07.696Z,1001.29
2017-05-18T01:57:08.359Z,1001.28
2017-05-18T01:58:08.971Z,1001.31
2017-05-18T01:59:09.587Z,1001.27
2017-05-18T02:00:10.190Z,1001.35
2017-05-18T02:01:10.806Z,1001.30
2017-05-18T02:02:11.418Z,1001.32
2017-05-18T02:03:12.019Z,1001.33
2017-05-18T02:04:12.636Z,1001.32
2017-05-18T02:05:13.263Z,1001.33
2017-05-18T02:06:13.861Z,1001.31
2017-05-18T02:07:14.463Z,1001.30
2017-05-18T02:08:15.077Z,1001.34
2017-05-18T02:09:15.687Z,1001.30
2017-05-18T02:10:16.298Z,1001.32
2017-05-18T02:11:16.912Z,1001.36
2017-05-18T02:12:17.532Z,1001.39
2017-05-18T02:13:18.131Z,1001.36
2017-05-18T02:14:18.739Z,1001.40
2017-05-18T02:15:19.353Z,1001.38
2017-05-18T02:16:19.956Z,1001.44
2017-05-18T02:17:20.610Z,1001.37
2017-05-18T02:18:21.227Z,1001.39
2017-05-18T02:19:21.849Z,1001.40
2017-05-18T02:20:22.473Z,1001.41
2017-05-18T02:21:23.086Z,1001.42
2017-05-18T02:22:23.694Z,1001.42
2017-05-18T02:23:24.307Z,1001.45
2017-05-18T02:24:24.925Z,1001.38
2017-05-18T02:25:25.539Z,1001.42
2017-05-18T02:26:26.149Z,1001.35
2017-05-18T02:27:26.766Z,1001.38
2017-05-18T02:28:27.372Z,1001.38
2017-05-18T02:29:27.988Z,1001.44
2017-05-18T02:30:28.603Z,1001.44
2017-05-18T02:31:29.202Z,1001.44
2017-05-18T02:32:29.815Z,1001.38
2017-05-18T02:33:30.430Z,1001.40
2017-05-18T02:34:31.047Z,1001.39
2017-05-18T02:35:31.655Z,1001.37
2017-05-18T02:36:32.259Z,1001.36
2017-05-18T02:37:32.871Z,1001.36
2017-05-18T02:38:33.472Z,1001.34
2017-05-18T02:39:34.083Z,1001.38
2017-05-18T02:40:34.701Z,1001.39
2017-05-18T02:41:35.314Z,1001.40
2017-05-18T02:42:35.916Z,1001.39
2017-05-18T02:43:36.519Z,1001.41
2017-05-18T02:44:37.129Z,1001.39
2017-05-18T02:45:37.733Z,1001.41
2017-05-18T02:46:38.339Z,1001.41
2017-05-18T02:47:38.950Z,1001.40
2017-05-18T02:48:39.562Z,1001.45
2017-05-18T02:49:40.167Z,1001.46
2017-05-18T02:50:40.766Z,1001.43
2017-05-18T02:51:41.385Z,1001.40
2017-05-18T02:52:41.979Z,1001.44
2017-05-18T02:53:42.589Z,1001.42
2017-05-18T02:54:43.200Z,1001.40
2017-05-18T02:55:43.801Z,1001.43
2017-05-18T02:56:44.416Z,1001.46
2017-05-18T02:57:45.019Z,1001.47
2017-05-18T02:58:45.633Z,1001.46
2017-05-18T02:59:46.236Z,1001.48
2017-05-18T03:00:46.845Z,1001.49
2017-05-18T03:01:47.459Z,1001.54
2017-05-18T03:02:48.089Z,1001.47
2017-05-18T03:03:48.693Z,1001.48
2017-05-18T03:04:49.295Z,1001.48
2017-05-18T03:05:49.896Z,1001.48
2017-05-18T03:06:50.504Z,1001.45
2017-05-18T03:07:51.109Z,1001.46
2017-05-18T03:08:51.712Z,1001.43
2017-05-18T03:09:52.322Z,1001.41
2017-05-18T03:10:52.932Z,1001.40
2017-05-18T03:11:53.546Z,1001.33
2017-05-18T03:12:54.164Z,1001.30
2017-05-18T03:13:54.778Z,1001.28
2017-05-18T03:14:55.379Z,1001.25
2017-05-18T03:15:55.995Z,1001.26
2017-05-18T03:16:56.612Z,1001.27
2017-05-18T03:17:57.226Z,1001.28
2017-05-18T03:18:57.841Z,1001.37
2017-05-18T03:19:58.455Z,1001.38
2017-05-18T03:20:59.059Z,1001.33
2017-05-18T03:21:59.671Z,1001.35
2017-05-18T03:23:00.289Z,1001.38
2017-05-18T03:24:00.903Z,1001.34
2017-05-18T03:25:01.515Z,1001.29
2017-05-18T03:26:02.130Z,1001.31
2017-05-18T03:27:02.749Z,1001.35
2017-05-18T03:28:03.367Z,1001.32
2017-05-18T03:29:03.983Z,1001.28
2017-05-18T03:30:04.597Z,1001.31
2017-05-18T03:31:05.213Z,1001.35
2017-05-18T03:32:05.869Z,1001.33
2017-05-18T03:33:06.477Z,1001.35
2017-05-18T03:34:07.086Z,1001.35
2017-05-18T03:35:07.700Z,1001.29
2017-05-18T03:36:08.328Z,1001.27
2017-05-18T03:37:09.005Z,1001.26
2017-05-18T03:38:09.597Z,1001.25
2017-05-18T03:39:10.213Z,1001.25
2017-05-18T03:40:10.830Z,1001.23
2017-05-18T03:41:11.445Z,1001.20
2017-05-18T03:42:12.050Z,1001.18
2017-05-18T03:43:12.650Z,1001.22
2017-05-18T03:44:13.261Z,1001.19
2017-05-18T03:45:13.869Z,1001.19
2017-05-18T03:46:14.476Z,1001.26
2017-05-18T03:47:15.132Z,1001.28
2017-05-18T03:48:15.737Z,1001.34
2017-05-18T03:49:16.341Z,1001.32
2017-05-18T03:50:16.952Z,1001.38
2017-05-18T03:51:17.567Z,1001.41
2017-05-18T03:52:18.167Z,1001.41
2017-05-18T03:53:18.780Z,1001.42
2017-05-18T03:54:19.395Z,1001.43
2017-05-18T03:55:20.005Z,1001.48
2017-05-18T03:56:20.621Z,1001.51
2017-05-18T03:57:21.236Z,1001.56
2017-05-18T03:58:21.852Z,1001.55
2017-05-18T03:59:22.456Z,1001.60
2017-05-18T04:00:23.057Z,1001.65
2017-05-18T04:01:23.663Z,1001.68
2017-05-18T04:02:24.273Z,1001.66
2017-05-18T04:03:24.892Z,1001.65
2017-05-18T04:04:25.508Z,1001.62
2017-05-18T04:05:26.109Z,1001.62
2017-05-18T04:06:26.721Z,1001.58
2017-05-18T04:07:27.338Z,1001.58
2017-05-18T04:08:27.961Z,1001.52
2017-05-18T04:09:28.573Z,1001.54
2017-05-18T04:10:29.179Z,1001.55
2017-05-18T04:11:29.783Z,1001.53
2017-05-18T04:12:30.386Z,1001.57
2017-05-18T04:13:30.998Z,1001.59
2017-05-18T04:14:31.620Z,1001.60
2017-05-18T04:15:32.224Z,1001.58
2017-05-18T04:16:32.843Z,1001.62
2017-05-18T04:17:33.448Z,1001.66
2017-05-18T04:18:34.050Z,1001.70
2017-05-18T04:19:34.667Z,1001.71
2017-05-18T04:20:35.270Z,1001.74
2017-05-18T04:21:35.883Z,1001.71
2017-05-18T04:22:36.492Z,1001.69
2017-05-18T04:23:37.100Z,1001.64
2017-05-18T04:24:37.734Z,1001.64
2017-05-18T04:25:38.342Z,1001.65
2017-05-18T04:26:38.946Z,1001.69
2017-05-18T04:27:39.555Z,1001.68
2017-05-18T04:28:40.169Z,1001.73
2017-05-18T04:29:40.781Z,1001.75
2017-05-18T04:30:41.403Z,1001.72
2017-05-18T04:31:42.009Z,1001.71
2017-05-18T04:32:42.620Z,1001.69
2017-05-18T04:33:43.224Z,1001.72
2017-05-18T04:34:43.843Z,1001.69
2017-05-18T04:35:44.460Z,1001.72
2017-05-18T04:36:45.079Z,1001.72
2017-05-18T04:37:45.687Z,1001.69
2017-05-18T04:38:46.300Z,1001.71
2017-05-18T04:39:46.909Z,1001.77
2017-05-18T04:40:47.527Z,1001.81
2017-05-18T04:41:48.141Z,1001.79
2017-05-18T04:42:48.758Z,1001.82
2017-05-18T04:43:49.371Z,1001.80
2017-05-18T04:44:49.994Z,1001.78
2017-05-18T04:45:50.613Z,1001.79
2017-05-18T04:46:51.225Z,1001.84
2017-05-18T04:47:51.843Z,1001.85
2017-05-18T04:48:52.456Z,1001.84
2017-05-18T04:49:53.057Z,1001.90
2017-05-18T04:50:53.681Z,1001.94
2017-05-18T04:51:54.310Z,1001.92
2017-05-18T04:52:54.912Z,1001.92
2017-05-18T04:53:55.533Z,1001.93
2017-05-18T04:54:56.152Z,1001.96
2017-05-18T04:55:56.763Z,1001.97
2017-05-18T04:56:57.395Z,1002.00
2017-05-18T04:57:57.996Z,1002.05
2017-05-18T04:58:58.614Z,1002.02
2017-05-18T04:59:59.232Z,1002.07
2017-05-18T05:00:59.846Z,1002.09
2017-05-18T05:02:00.468Z,1002.10
2017-05-18T05:03:01.056Z,1002.13
2017-05-18T05:04:01.671Z,1002.18
2017-05-18T05:05:02.281Z,1002.18
2017-05-18T05:06:02.905Z,1002.19
2017-05-18T05:07:03.558Z,1002.20
2017-05-18T05:08:04.179Z,1002.21
2017-05-18T05:09:04.796Z,1002.24
2017-05-18T05:10:05.411Z,1002.27
2017-05-18T05:11:06.017Z,1002.29
2017-05-18T05:12:06.621Z,1002.28
2017-05-18T05:13:07.235Z,1002.33
2017-05-18T05:14:07.855Z,1002.33
2017-05-18T05:15:08.473Z,1002.30
2017-05-18T05:16:09.096Z,1002.27
2017-05-18T05:17:09.717Z,1002.30
2017-05-18T05:18:10.322Z,1002.32
2017-05-18T05:19:10.940Z,1002.35
2017-05-18T05:20:11.545Z,1002.37
2017-05-18T05:21:12.163Z,1002.42
2017-05-18T05:22:12.834Z,1002.46
2017-05-18T05:23:13.445Z,1002.48
2017-05-18T05:24:14.061Z,1002.40
2017-05-18T05:25:14.689Z,1002.43
2017-05-18T05:26:15.300Z,1002.46
2017-05-18T05:27:15.928Z,1002.45
2017-05-18T05:28:16.549Z,1002.44
2017-05-18T05:29:17.169Z,1002.45
2017-05-18T05:30:17.788Z,1002.48
2017-05-18T05:31:18.394Z,1002.50
2017-05-18T05:32:19.063Z,1002.52
2017-05-18T05:33:19.685Z,1002.50
2017-05-18T05:34:20.293Z,1002.52
2017-05-18T05:35:20.896Z,1002.52
2017-05-18T05:36:21.501Z,1002.55
2017-05-18T05:37:22.114Z,1002.56
2017-05-18T05:38:22.732Z,1002.55
2017-05-18T05:39:23.349Z,1002.58
2017-05-18T05:40:23.967Z,1002.60
2017-05-18T05:41:24.586Z,1002.57
2017-05-18T05:42:25.201Z,1002.58
2017-05-18T05:43:25.818Z,1002.56
2017-05-18T05:44:26.426Z,1002.57
2017-05-18T05:45:27.042Z,1002.55
2017-05-18T05:46:27.669Z,1002.55
2017-05-18T05:47:28.270Z,1002.65
2017-05-18T05:48:28.879Z,1002.67
2017-05-18T05:49:29.482Z,1002.63
2017-05-18T05:50:30.099Z,1002.68
2017-05-18T05:51:30.721Z,1002.67
2017-05-18T05:52:31.343Z,1002.71
2017-05-18T05:53:31.961Z,1002.78
2017-05-18T05:54:32.565Z,1002.76
2017-05-18T05:55:33.174Z,1002.77
2017-05-18T05:56:33.786Z,1002.79
2017-05-18T05:57:34.407Z,1002.80
2017-05-18T05:58:35.029Z,1002.78
2017-05-18T05:59:35.648Z,1002.75
2017-05-18T06:00:36.256Z,1002.79
2017-05-18T06:01:36.866Z,1002.79
2017-05-18T06:02:37.483Z,1002.87
2017-05-18T06:03:38.100Z,1002.83
2017-05-18T06:04:38.722Z,1002.82
2017-05-18T06:05:39.333Z,1002.77
2017-05-18T06:06:39.954Z,1002.77
2017-05-18T06:07:40.575Z,1002.80
2017-05-18T06:08:41.199Z,1002.81
2017-05-18T06:09:41.809Z,1002.83
2017-05-18T06:10:42.428Z,1002.81
2017-05-18T06:11:43.030Z,1002.86
2017-05-18T06:12:43.639Z,1002.83
2017-05-18T06:13:44.260Z,1002.85
2017-05-18T06:14:44.864Z,1002.81
2017-05-18T06:15:45.470Z,1002.88
2017-05-18T06:16:46.089Z,1002.92
2017-05-18T06:17:46.693Z,1002.93
2017-05-18T06:18:47.306Z,1002.96
2017-05-18T06:19:47.923Z,1002.98
2017-05-18T06:20:48.537Z,1002.97
2017-05-18T06:21:49.143Z,1002.97
2017-05-18T06:22:49.811Z,1002.98
2017-05-18T06:23:50.430Z,1002.95
2017-05-18T06:24:51.045Z,1003.00
2017-05-18T06:25:51.662Z,1002.97
2017-05-18T06:26:52.268Z,1002.98
2017-05-18T06:27:52.891Z,1002.99
2017-05-18T06:28:53.503Z,1002.99
2017-05-18T06:29:54.112Z,1002.96
2017-05-18T06:30:54.721Z,1002.95
2017-05-18T06:31:55.340Z,1002.93
2017-05-18T06:32:55.962Z,1002.94
2017-05-18T06:33:56.583Z,1002.96
2017-05-18T06:34:57.192Z,1002.93
2017-05-18T06:35:57.814Z,1002.85
2017-05-18T06:36:58.424Z,1002.80
2017-05-18T06:37:59.035Z,1002.77
2017-05-18T06:38:59.645Z,1002.76
2017-05-18T06:40:00.255Z,1002.78
2017-05-18T06:41:00.870Z,1002.80
2017-05-18T06:42:01.484Z,1002.82
2017-05-18T06:43:02.108Z,1002.79
2017-05-18T06:44:02.715Z,1002.80
2017-05-18T06:45:03.326Z,1002.78
2017-05-18T06:46:03.949Z,1002.81
2017-05-18T06:47:04.577Z,1002.87
2017-05-18T06:48:05.182Z,1002.97
2017-05-18T06:49:05.801Z,1002.99
2017-05-18T06:50:06.421Z,1003.00
2017-05-18T06:51:07.039Z,1003.00
2017-05-18T06:52:07.664Z,1002.97
2017-05-18T06:53:08.283Z,1003.01
2017-05-18T06:54:08.902Z,1003.02
2017-05-18T06:55:09.522Z,1003.03
2017-05-18T06:56:10.144Z,1003.07
2017-05-18T06:57:10.774Z,1003.03
2017-05-18T06:58:11.399Z,1003.05
2017-05-18T06:59:12.025Z,1003.06
2017-05-18T07:00:12.639Z,1003.10
2017-05-18T07:01:13.260Z,1003.15
2017-05-18T07:02:13.915Z,1003.20
2017-05-18T07:03:14.525Z,1003.27
2017-05-18T07:04:15.141Z,1003.31
2017-05-18T07:05:15.763Z,1003.30
2017-05-18T07:06:16.381Z,1003.28
2017-05-18T07:07:17.008Z,1003.32
2017-05-18T07:08:17.619Z,1003.34
2017-05-18T07:09:18.241Z,1003.35
2017-05-18T07:10:18.985Z,1003.31
2017-05-18T07:11:19.612Z,1003.35
2017-05-18T07:12:20.225Z,1003.39
2017-05-18T07:13:20.856Z,1003.44
2017-05-18T07:14:21.466Z,1003.48
2017-05-18T07:15:22.079Z,1003.48
2017-05-18T07:16:22.726Z,1003.54
2017-05-18T07:17:23.328Z,1003.57
2017-05-18T07:18:23.945Z,1003.57
2017-05-18T07:19:24.565Z,1003.57
2017-05-18T07:20:25.184Z,1003.57
2017-05-18T07:21:25.799Z,1003.59
2017-05-18T07:22:26.416Z,1003.55
2017-05-18T07:23:27.037Z,1003.55
2017-05-18T07:24:27.658Z,1003.57
2017-05-18T07:25:28.277Z,1003.53
2017-05-18T07:26:28.944Z,1003.52
2017-05-18T07:27:29.585Z,1003.52
2017-05-18T07:28:30.184Z,1003.57
2017-05-18T07:29:30.806Z,1003.61
2017-05-18T07:30:31.429Z,1003.60
2017-05-18T07:31:32.054Z,1003.57
2017-05-18T07:32:32.675Z,1003.57
2017-05-18T07:33:33.294Z,1003.57
2017-05-18T07:34:33.913Z,1003.59
2017-05-18T07:35:34.530Z,1003.63
2017-05-18T07:36:35.141Z,1003.58
2017-05-18T07:37:35.748Z,1003.61
2017-05-18T07:38:36.366Z,1003.55
2017-05-18T07:39:36.975Z,1003.52
2017-05-18T07:40:37.611Z,1003.50
2017-05-18T07:41:38.255Z,1003.51
2017-05-18T07:42:38.890Z,1003.48
2017-05-18T07:43:39.512Z,1003.51
2017-05-18T07:44:40.119Z,1003.58
2017-05-18T07:45:40.742Z,1003.57
2017-05-18T07:46:41.361Z,1003.65
2017-05-18T07:47:41.979Z,1003.69
2017-05-18T07:48:42.599Z,1003.69
2017-05-18T07:49:43.213Z,1003.59
2017-05-18T07:50:43.832Z,1003.45
2017-05-18T07:51:44.453Z,1003.42
2017-05-18T07:52:45.075Z,1003.49
2017-05-18T07:53:45.696Z,1003.58
2017-05-18T07:54:46.313Z,1003.68
2017-05-18T07:55:46.920Z,1003.73
2017-05-18T07:56:47.537Z,1003.77
2017-05-18T07:57:48.145Z,1003.83
2017-05-18T07:58:48.765Z,1003.88
2017-05-18T07:59:49.382Z,1003.89
2017-05-18T08:00:49.990Z,1003.87
2017-05-18T08:01:50.611Z,1003.90
2017-05-18T08:02:51.233Z,1003.86
2017-05-18T08:03:51.854Z,1003.88
2017-05-18T08:04:52.477Z,1003.83
2017-05-18T08:05:53.096Z,1003.81
2017-05-18T08:06:53.712Z,1003.75
2017-05-18T08:07:54.332Z,1003.73
2017-05-18T08:08:54.951Z,1003.76
2017-05-18T08:09:55.575Z,1003.74
2017-05-18T08:10:56.189Z,1003.77
2017-05-18T08:11:56.806Z,1003.77
2017-05-18T08:12:57.426Z,1003.73
2017-05-18T08:13:58.042Z,1003.74
2017-05-18T08:14:58.651Z,1003.70
2017-05-18T08:15:59.278Z,1003.68
2017-05-18T08:16:59.899Z,1003.72
2017-05-18T08:18:00.510Z,1003.69
2017-05-18T08:19:01.124Z,1003.71
2017-05-18T08:20:01.730Z,1003.67
2017-05-18T08:21:02.348Z,1003.68
2017-05-18T08:22:02.968Z,1003.71
2017-05-18T08:23:03.585Z,1003.69
2017-05-18T08:24:04.190Z,1003.67
2017-05-18T08:25:04.804Z,1003.66
2017-05-18T08:26:05.408Z,1003.63
2017-05-18T08:27:06.027Z,1003.67
2017-05-18T08:28:06.634Z,1003.67
2017-05-18T08:29:07.242Z,1003.63
2017-05-18T08:30:07.874Z,1003.68
2017-05-18T08:31:08.494Z,1003.65
2017-05-18T08:32:09.111Z,1003.67
2017-05-18T08:33:09.721Z,1003.66
2017-05-18T08:34:10.331Z,1003.64
2017-05-18T08:35:10.951Z,1003.62
2017-05-18T08:36:11.571Z,1003.63
2017-05-18T08:37:12.190Z,1003.63
2017-05-18T08:38:12.815Z,1003.62
2017-05-18T08:39:13.417Z,1003.67
2017-05-18T08:40:14.037Z,1003.70
2017-05-18T08:41:14.657Z,1003.67
2017-05-18T08:42:15.328Z,1003.67
2017-05-18T08:43:15.951Z,1003.61
2017-05-18T08:44:16.573Z,1003.67
2017-05-18T08:45:17.188Z,1003.63
2017-05-18T08:46:17.806Z,1003.64
2017-05-18T08:47:18.415Z,1003.68
2017-05-18T08:48:19.039Z,1003.70
2017-05-18T08:49:19.649Z,1003.74
2017-05-18T08:50:20.251Z,1003.82
2017-05-18T08:51:20.873Z,1003.88
2017-05-18T08:52:21.496Z,1003.94
2017-05-18T08:53:22.120Z,1003.98
2017-05-18T08:54:22.724Z,1003.98
2017-05-18T08:55:23.346Z,1003.97
2017-05-18T08:56:24.175Z,1003.93
2017-05-18T08:57:24.793Z,1003.91
2017-05-18T08:58:25.418Z,1003.88
2017-05-18T08:59:26.040Z,1003.86
2017-05-18T09:00:26.665Z,1003.89
2017-05-18T09:01:27.286Z,1003.94
2017-05-18T09:02:27.913Z,1003.98
2017-05-18T09:03:28.537Z,1003.98
2017-05-18T09:04:29.159Z,1003.95
2017-05-18T09:05:29.782Z,1003.91
2017-05-18T09:06:30.404Z,1003.94
2017-05-18T09:07:31.018Z,1003.98
2017-05-18T09:08:31.633Z,1004.01
2017-05-18T09:09:32.250Z,1004.03
2017-05-18T09:10:32.877Z,1004.04
2017-05-18T09:11:33.482Z,1004.07
2017-05-18T09:12:34.094Z,1004.06
2017-05-18T09:13:34.714Z,1004.04
2017-05-18T09:14:35.320Z,1004.00
2017-05-18T09:15:35.937Z,1004.06
2017-05-18T09:16:36.552Z,1004.02
2017-05-18T09:17:37.156Z,1004.00
2017-05-18T09:18:37.771Z,1004.02
2017-05-18T09:19:38.392Z,1004.03
2017-05-18T09:20:39.008Z,1004.08
2017-05-18T09:21:39.626Z,1004.02
2017-05-18T09:22:40.242Z,1004.03
2017-05-18T09:23:40.854Z,1003.98
2017-05-18T09:24:41.479Z,1004.02
2017-05-18T09:25:42.097Z,1004.10
2017-05-18T09:26:42.714Z,1004.17
2017-05-18T09:27:43.335Z,1004.20
2017-05-18T09:28:43.962Z,1004.20
2017-05-18T09:29:44.588Z,1004.17
2017-05-18T09:30:45.204Z,1004.15
2017-05-18T09:31:45.821Z,1004.13
2017-05-18T09:32:46.439Z,1004.04
2017-05-18T09:33:47.074Z,1004.07
2017-05-18T09:34:47.698Z,1004.04
2017-05-18T09:35:48.322Z,1003.97
2017-05-18T09:36:48.944Z,1004.02
2017-05-18T09:37:49.567Z,1004.04
2017-05-18T09:38:50.169Z,1004.06
2017-05-18T09:39:50.791Z,1004.04
2017-05-18T09:40:51.420Z,1004.03
2017-05-18T09:41:52.046Z,1004.04
2017-05-18T09:42:52.648Z,1003.99
2017-05-18T09:43:53.253Z,1004.02
2017-05-18T09:44:53.865Z,1004.01
2017-05-18T09:45:54.492Z,1004.02
2017-05-18T09:46:55.160Z,1004.01
2017-05-18T09:47:55.767Z,1003.97
2017-05-18T09:48:56.374Z,1003.96
2017-05-18T09:49:56.994Z,1003.95
2017-05-18T09:50:57.617Z,1003.97
2017-05-18T09:51:58.232Z,1003.98
2017-05-18T09:52:58.858Z,1004.01
2017-05-18T09:53:59.480Z,1004.02
2017-05-18T09:55:00.089Z,1004.03
2017-05-18T09:56:00.703Z,1004.03
2017-05-18T09:57:01.378Z,1004.04
2017-05-18T09:58:02.007Z,1004.03
2017-05-18T09:59:02.611Z,1004.03
2017-05-18T10:00:03.246Z,1004.04
2017-05-18T10:01:03.877Z,1004.02
2017-05-18T10:02:04.504Z,1004.00
2017-05-18T10:03:05.134Z,1004.01
2017-05-18T10:04:05.765Z,1004.01
2017-05-18T10:05:06.373Z,1004.00
2017-05-18T10:06:06.995Z,1004.01
2017-05-18T10:07:07.625Z,1004.02
2017-05-18T10:08:08.231Z,1004.04
2017-05-18T10:09:08.851Z,1004.03
2017-05-18T10:10:09.460Z,1004.05
2017-05-18T10:11:10.067Z,1004.03
2017-05-18T10:12:10.690Z,1004.07
2017-05-18T10:13:11.300Z,1004.10
2017-05-18T10:14:11.911Z,1004.09
2017-05-18T10:15:12.520Z,1004.13
2017-05-18T10:16:13.125Z,1004.11
2017-05-18T10:17:13.791Z,1004.14
2017-05-18T10:18:14.420Z,1004.11
2017-05-18T10:19:15.028Z,1004.14
2017-05-18T10:20:15.658Z,1004.17
2017-05-18T10:21:16.265Z,1004.13
2017-05-18T10:22:16.890Z,1004.12
2017-05-18T10:23:17.525Z,1004.08
2017-05-18T10:24:18.152Z,1004.08
2017-05-18T10:25:18.780Z,1004.07
2017-05-18T10:26:19.410Z,1004.05
2017-05-18T10:27:20.029Z,1004.04
2017-05-18T10:28:20.653Z,1004.05
2017-05-18T10:29:21.282Z,1004.06
2017-05-18T10:30:21.906Z,1004.06
2017-05-18T10:31:22.524Z,1004.07
2017-05-18T10:32:23.144Z,1004.03
2017-05-18T10:33:23.766Z,1004.05
2017-05-18T10:34:24.380Z,1004.06
2017-05-18T10:35:25.004Z,1004.04
2017-05-18T10:36:25.633Z,1004.07
2017-05-18T10:37:26.256Z,1004.12
2017-05-18T10:38:26.875Z,1004.14
2017-05-18T10:39:27.709Z,1004.12
2017-05-18T10:40:28.339Z,1004.05
2017-05-18T10:41:29.002Z,1004.10
2017-05-18T10:42:29.626Z,1004.09
2017-05-18T10:43:30.248Z,1004.09
2017-05-18T10:44:30.881Z,1004.05
2017-05-18T10:45:31.505Z,1004.07
2017-05-18T10:46:32.117Z,1004.04
2017-05-18T10:47:32.723Z,1004.03
2017-05-18T10:48:33.356Z,1004.02
2017-05-18T10:49:33.983Z,1003.99
2017-05-18T10:50:34.596Z,1003.99
2017-05-18T10:51:35.205Z,1004.00
2017-05-18T10:52:35.810Z,1003.97
2017-05-18T10:53:36.419Z,1003.96
2017-05-18T10:54:37.030Z,1003.98
2017-05-18T10:55:37.639Z,1003.98
2017-05-18T10:56:38.315Z,1004.02
2017-05-18T10:57:38.945Z,1004.00
2017-05-18T10:58:39.629Z,1004.07
2017-05-18T10:59:40.188Z,1004.05
2017-05-18T11:00:40.819Z,1004.05
2017-05-18T11:01:41.455Z,1004.06
2017-05-18T11:02:42.086Z,1004.05
2017-05-18T11:03:42.698Z,1004.08
2017-05-18T11:04:43.326Z,1004.02
2017-05-18T11:05:44.173Z,1004.03
2017-05-18T11:06:44.800Z,1004.05
2017-05-18T11:07:45.410Z,1004.05
2017-05-18T11:08:46.021Z,1004.07
2017-05-18T11:09:46.649Z,1004.05
2017-05-18T11:10:47.279Z,1004.07
2017-05-18T11:11:47.892Z,1004.10
2017-05-18T11:12:48.516Z,1004.07
2017-05-18T11:13:49.131Z,1004.06
2017-05-18T11:14:49.755Z,1004.08
2017-05-18T11:15:50.382Z,1004.03
2017-05-18T11:16:51.240Z,1004.08
2017-05-18T11:17:51.854Z,1004.06
2017-05-18T11:18:52.471Z,1004.07
2017-05-18T11:19:53.091Z,1004.08
2017-05-18T11:20:53.722Z,1004.08
2017-05-18T11:21:54.351Z,1004.06
2017-05-18T11:22:54.989Z,1004.04
2017-05-18T11:23:55.631Z,1004.07
2017-05-18T11:24:56.266Z,1004.10
2017-05-18T11:25:56.905Z,1004.07
2017-05-18T11:26:57.543Z,1004.08
2017-05-18T11:27:58.153Z,1004.10
2017-05-18T11:28:58.766Z,1004.07
2017-05-18T11:29:59.389Z,1004.05
2017-05-18T11:31:00.012Z,1004.08
2017-05-18T11:32:00.639Z,1004.07
2017-05-18T11:33:01.244Z,1004.08
2017-05-18T11:34:01.871Z,1004.08
2017-05-18T11:35:02.481Z,1004.05
2017-05-18T11:36:03.110Z,1004.04
2017-05-18T11:37:03.739Z,1004.02
2017-05-18T11:38:04.353Z,1003.99
2017-05-18T11:39:04.978Z,1003.98
2017-05-18T11:40:05.587Z,1003.97
2017-05-18T11:41:06.203Z,1004.00
2017-05-18T11:42:12.432Z,1004.00
2017-05-18T11:43:58.861Z,1004.00
2017-05-18T11:45:00.638Z,1004.00
2017-05-18T11:46:01.859Z,1004.04
2017-05-18T11:47:02.468Z,1004.02
2017-05-18T11:48:03.086Z,1004.01
2017-05-18T11:49:03.699Z,1004.00
2017-05-18T11:50:04.318Z,1004.06
2017-05-18T11:51:04.924Z,1004.03
2017-05-18T11:52:05.533Z,1004.02
2017-05-18T11:53:06.160Z,1004.01
2017-05-18T11:54:06.770Z,1004.04
2017-05-18T11:55:07.385Z,1004.03
2017-05-18T11:56:08.015Z,1004.00
2017-05-18T11:57:08.642Z,1004.03
2017-05-18T11:58:09.324Z,1003.99
2017-05-18T11:59:09.938Z,1004.02
2017-05-18T12:00:10.562Z,1003.97
2017-05-18T12:01:11.181Z,1004.01
2017-05-18T12:02:11.793Z,1003.94
2017-05-18T12:03:12.426Z,1003.94
2017-05-18T12:04:13.112Z,1003.93
2017-05-18T12:05:13.761Z,1003.94
2017-05-18T12:06:14.401Z,1003.94
2017-05-18T12:07:15.027Z,1003.90
2017-05-18T12:08:15.700Z,1003.88
2017-05-18T12:09:16.311Z,1003.85
2017-05-18T12:10:16.947Z,1003.88
2017-05-18T12:11:17.555Z,1003.86
2017-05-18T12:12:18.185Z,1003.89
2017-05-18T12:13:18.834Z,1003.89
2017-05-18T12:14:19.475Z,1003.86
2017-05-18T12:15:20.090Z,1003.85